Hauptseite
METAR-TAF:

METAR-TAF

Flughäfen :

Southampton International Airport

Southampton, England

Breite: 50-54N, Länge: 001-24W, Höhe: 9 m

Beobachtung

Neuester Wetterbericht von vor 4 Stunden und 17 Minuten, um 21:50 UTC
Wind 7 kt aus Südwest, variierte zwischen Süd und West/Südwest
Temperatur 17°C
Luftfeuchtigkeit 77%
Luftdruck 1022 hPa
Sichtweite 10 km oder mehr
Geschlossene Wolkendecke in der Höhe von 2700 ft

METAR: EGHI 182150Z 23007KT 190V250 9999 OVC027 17/13 Q1022

Zeit: 03:07 (02:07 UTC)

Prognose

Neuester Wetterbericht von vor 9 Stunden und 10 Minuten, um 16:57 UTC
Gültige Prognose vom 18 um 18 UTC bis 18 um 22 UTC
Wind 8 kt aus West/Südwest
Sichtweite 10 km oder mehr
Aufgelockert bewölkt in der Höhe von 3500 ft

TAF: EGHI 181657Z 1818/1822 24008KT 9999 SCT035

Wetterbeobachtungen und Prognosen von mehr als 4000 Flughäfen (METAR und TAF Bericht).

Die verfügbaren Stationen werden durch gelbe und rote Markierungen auf der Karte dargestellt.

Führen Sie die Maus auf sie, um den Namen der Station zu sehen.

Darauf klicken, um die Beobachtung von Wetterbeobachtungen und Prognosen zu sehen.

Um die Karte zu ändern : klicken Sie auf den grünen Tasten mit einem schwarzen Kreuz Zum Vergrößern, auf den grünen Button mit einem Gedankenstrich zu verkleinern, oder auf die grünen Pfeile für benachbarte Karten.


METAR-TAF: